Smithfield, RI

11:27 PM EST on December 03, 2016 (GMT -0500)
North Central State

Weather History for KSFZ - August, 2013

Change the Weather History Date:

Wednesday, August 14, 2013

  Actual Average Record
Temperature  
Mean Temperature 62 °F -  
Max Temperature 71 °F 77 °F 96 °F (2002)
Min Temperature 53 °F 60 °F 51 °F (2006)
Degree Days  
Heating Degree Days 3    
Growing Degree Days 12 (Base 50)    
Moisture  
Dew Point 51 °F    
Average Humidity 65    
Maximum Humidity 94    
Minimum Humidity 46    
Precipitation  
Precipitation 0.00 in - - ()
Sea Level Pressure  
Sea Level Pressure 29.81 in    
Wind  
Wind Speed 8 mph (WNW)    
Max Wind Speed 17 mph    
Max Gust Speed 29 mph    
Visibility 10 miles    
Events      
Averages and records for this station are not official NWS values.
T = Trace of Precipitation, MM = Missing Value Source: NWS Daily Summary

Daily Weather History Graph

Daily Weather History Graph

Search for Another Location

Airport or City:

Trip Planner

Search our weather history database for the weather conditions in past years. The results will help you decide how hot, cold, wet, or windy it might be!

Date:

Astronomy

Aug. 14, 2013 Rise Set
Actual Time 5:53 AM EDT 7:47 PM EDT
Civil Twilight 5:23 AM EDT 8:17 PM EDT
Nautical Twilight 4:46 AM EDT 8:53 PM EDT
Astronomical Twilight 4:06 AM EDT 9:33 PM EDT
Moon 1:57 PM EDT (8/14) 11:59 PM EDT (8/14)
Length of Visible Light 14h 54m
Length of Day
13h 54m
First Quarter, 52% of the Moon is Illuminated
Aug 14
First Quarter
Aug 20
Full
Aug 28
Last Quarter
Sep 5
New
Sep 12
First Quarter

Hourly Weather History & Observations

Time (EDT) Temp. Dew Point Humidity Pressure Visibility Wind Dir Wind Speed Gust Speed Precip Events Conditions
12:15 AM 62.6 °F 59.0 °F 88% 29.72 in 6.0 mi SW 3.5 mph - N/A   Clear
12:35 AM 62.6 °F 60.8 °F 94% 29.73 in 7.0 mi Calm Calm - N/A   Clear
12:55 AM 62.6 °F 60.8 °F 94% 29.72 in 6.0 mi SW 3.5 mph - N/A   Partly Cloudy
1:15 AM 64.4 °F 60.8 °F 88% 29.72 in 6.0 mi WSW 4.6 mph - N/A   Clear
1:35 AM 64.4 °F 60.8 °F 88% 29.72 in 7.0 mi WSW 3.5 mph - N/A   Mostly Cloudy
1:55 AM 64.4 °F 60.8 °F 88% 29.71 in 7.0 mi WSW 4.6 mph - N/A   Mostly Cloudy
2:15 AM 64.4 °F 60.8 °F 88% 29.71 in 8.0 mi WSW 4.6 mph - N/A   Mostly Cloudy
2:35 AM 64.4 °F 60.8 °F 88% 29.71 in 9.0 mi West 4.6 mph - N/A   Mostly Cloudy
2:55 AM 64.4 °F 60.8 °F 88% 29.72 in 10.0 mi West 5.8 mph - N/A   Scattered Clouds
3:15 AM 64.4 °F 60.8 °F 88% 29.72 in 10.0 mi WNW 5.8 mph - N/A   Clear
3:35 AM 62.6 °F 57.2 °F 82% 29.72 in 10.0 mi NW 6.9 mph - N/A   Clear
3:55 AM 62.6 °F 55.4 °F 77% 29.72 in 10.0 mi WNW 5.8 mph - N/A   Clear
4:15 AM 62.6 °F 53.6 °F 72% 29.72 in 10.0 mi WNW 8.1 mph - N/A   Clear
4:35 AM 60.8 °F 53.6 °F 77% 29.72 in 10.0 mi WNW 5.8 mph - N/A   Clear
4:55 AM 60.8 °F 51.8 °F 72% 29.73 in 10.0 mi WNW 6.9 mph - N/A   Clear
5:15 AM 60.8 °F 51.8 °F 72% 29.74 in 10.0 mi WNW 6.9 mph 16.1 mph N/A   Clear
5:35 AM 60.8 °F 50.0 °F 68% 29.74 in 10.0 mi WNW 8.1 mph - N/A   Clear
6:15 AM 59.0 °F 48.2 °F 67% 29.76 in 10.0 mi WNW 9.2 mph - N/A   Clear
6:35 AM 57.2 °F 46.4 °F 67% 29.76 in 10.0 mi WNW 11.5 mph 17.3 mph N/A   Clear
6:55 AM 57.2 °F 46.4 °F 67% 29.77 in 10.0 mi WNW 10.4 mph - N/A   Clear
7:15 AM 59.0 °F 46.4 °F 63% 29.77 in 10.0 mi WNW 10.4 mph - N/A   Clear
7:35 AM 59.0 °F 46.4 °F 63% 29.77 in 10.0 mi WNW 10.4 mph - N/A   Clear
7:55 AM 60.8 °F 46.4 °F 59% 29.77 in 10.0 mi WNW 9.2 mph - N/A   Clear
8:15 AM 60.8 °F 46.4 °F 59% 29.78 in 10.0 mi WNW 12.7 mph 18.4 mph N/A   Clear
8:35 AM 62.6 °F 46.4 °F 55% 29.78 in 10.0 mi NW 8.1 mph 17.3 mph N/A   Clear
8:55 AM 62.6 °F 48.2 °F 59% 29.78 in 10.0 mi NW 10.4 mph - N/A   Clear
9:15 AM 62.6 °F 48.2 °F 59% 29.77 in 10.0 mi WNW 11.5 mph 19.6 mph N/A   Clear
9:35 AM 64.4 °F 48.2 °F 56% 29.78 in 10.0 mi West 12.7 mph - N/A   Clear
9:55 AM 64.4 °F 48.2 °F 56% 29.78 in 10.0 mi West 13.8 mph 18.4 mph N/A   Clear
10:15 AM 64.4 °F 48.2 °F 56% 29.78 in 10.0 mi West 12.7 mph 19.6 mph N/A   Clear
10:35 AM 66.2 °F 48.2 °F 52% 29.78 in 10.0 mi WNW 13.8 mph 21.9 mph N/A   Clear
10:55 AM 66.2 °F 48.2 °F 52% 29.78 in 10.0 mi West 15.0 mph 19.6 mph N/A   Clear
11:15 AM 66.2 °F 48.2 °F 52% 29.78 in 10.0 mi West 12.7 mph 21.9 mph N/A   Clear
11:35 AM 66.2 °F 50.0 °F 56% 29.78 in 10.0 mi West 15.0 mph 24.2 mph N/A   Clear
11:55 AM 68.0 °F 50.0 °F 52% 29.78 in 10.0 mi West 13.8 mph 21.9 mph N/A   Scattered Clouds
12:15 PM 68.0 °F 51.8 °F 56% 29.79 in 10.0 mi WNW 11.5 mph 17.3 mph N/A   Scattered Clouds
12:35 PM 69.8 °F 51.8 °F 53% 29.80 in 10.0 mi West 13.8 mph 20.7 mph N/A   Mostly Cloudy
12:55 PM 69.8 °F 50.0 °F 49% 29.80 in 10.0 mi WNW 17.3 mph 24.2 mph N/A   Mostly Cloudy
1:15 PM 69.8 °F 50.0 °F 49% 29.79 in 10.0 mi West 17.3 mph 28.8 mph N/A   Scattered Clouds
1:35 PM 69.8 °F 48.2 °F 46% 29.80 in 10.0 mi WNW 15.0 mph 26.5 mph N/A   Scattered Clouds
1:55 PM 69.8 °F 48.2 °F 46% 29.80 in 10.0 mi West 15.0 mph 23.0 mph N/A   Clear
2:15 PM 69.8 °F 48.2 °F 46% 29.79 in 10.0 mi West 12.7 mph 24.2 mph N/A   Clear
2:35 PM 69.8 °F 50.0 °F 49% 29.79 in 10.0 mi NW 13.8 mph 28.8 mph N/A   Partly Cloudy
2:55 PM 69.8 °F 50.0 °F 49% 29.79 in 10.0 mi West 15.0 mph 27.6 mph N/A   Clear
3:55 PM 69.8 °F 50.0 °F 49% 29.81 in 10.0 mi West 11.5 mph 19.6 mph N/A   Mostly Cloudy
4:16 PM 69.8 °F 50.0 °F 49% 29.81 in 10.0 mi WNW 11.5 mph 18.4 mph N/A   Scattered Clouds
4:35 PM 71.6 °F 51.8 °F 50% 29.81 in 10.0 mi NW 13.8 mph 19.6 mph N/A   Mostly Cloudy
4:55 PM 69.8 °F 51.8 °F 53% 29.82 in 10.0 mi WNW 15.0 mph 21.9 mph N/A   Partly Cloudy
5:15 PM 69.8 °F 51.8 °F 53% 29.83 in 10.0 mi WNW 5.8 mph - N/A   Clear
5:35 PM 69.8 °F 51.8 °F 53% 29.83 in 10.0 mi WNW 13.8 mph 17.3 mph N/A   Clear
5:55 PM 69.8 °F 50.0 °F 49% 29.83 in 10.0 mi WNW 12.7 mph - N/A   Clear
6:15 PM 69.8 °F 50.0 °F 49% 29.84 in 10.0 mi WNW 12.7 mph 17.3 mph N/A   Scattered Clouds
6:35 PM 69.8 °F 50.0 °F 49% 29.85 in 10.0 mi WNW 11.5 mph - N/A   Mostly Cloudy
6:55 PM 68.0 °F 50.0 °F 52% 29.86 in 10.0 mi WNW 9.2 mph - N/A   Partly Cloudy
7:15 PM 66.2 °F 50.0 °F 56% 29.87 in 10.0 mi WNW 6.9 mph - N/A   Clear
7:35 PM 64.4 °F 50.0 °F 59% 29.88 in 10.0 mi WNW 5.8 mph - N/A   Clear
7:55 PM 62.6 °F 50.0 °F 63% 29.89 in 10.0 mi WNW 6.9 mph - N/A   Clear
8:15 PM 60.8 °F 51.8 °F 72% 29.90 in 10.0 mi West 4.6 mph - N/A   Partly Cloudy
8:35 PM 60.8 °F 50.0 °F 68% 29.92 in 10.0 mi West 4.6 mph - N/A   Partly Cloudy
8:55 PM 59.0 °F 50.0 °F 72% 29.93 in 10.0 mi West 4.6 mph - N/A   Clear
9:15 PM 59.0 °F 50.0 °F 72% 29.94 in 10.0 mi WNW 5.8 mph - N/A   Clear
9:35 PM 59.0 °F 50.0 °F 72% 29.96 in 10.0 mi WNW 4.6 mph - N/A   Clear
9:55 PM 59.0 °F 50.0 °F 72% 29.96 in 10.0 mi WNW 5.8 mph - N/A   Clear
10:15 PM 57.2 °F 48.2 °F 72% 29.97 in 10.0 mi WNW 4.6 mph - N/A   Clear
10:35 PM 57.2 °F 50.0 °F 77% 29.97 in 10.0 mi Calm Calm - N/A   Clear
10:55 PM 53.6 °F 50.0 °F 88% 29.99 in 10.0 mi West 3.5 mph - N/A   Clear
11:15 PM 53.6 °F 48.2 °F 82% 29.99 in 10.0 mi WNW 3.5 mph - N/A   Clear
11:35 PM 55.4 °F 50.0 °F 82% 30.00 in 10.0 mi WNW 6.9 mph - N/A   Clear
11:55 PM 55.4 °F 50.0 °F 82% 30.00 in 10.0 mi West 5.8 mph - N/A   Clear